Time;durP1;ratioP1;P1;durP2;ratioP2;P2;SDS_P1;SDS_P2;PMS_P1;PMS_P2;Temp;Humidity;BMP_temperature;BMP_pressure;BME280_temperature;BME280_humidity;BME280_pressure;Samples;Min_cycle;Max_cycle;Signal;HPM_P1;HPM_P2
2023/09/25 00:01:33;;;;;;;15.07;4.15;;;;;;;;;;5018043;28;20049;-68
2023/09/25 00:04:00;;;;;;;18.27;4.07;;;;;;;;;;5020686;28;20056;-69
2023/09/25 00:06:27;;;;;;;11.50;3.67;;;;;;;;;;5014157;28;20102;-69
2023/09/25 00:08:53;;;;;;;8.13;3.75;;;;;;;;;;5021923;28;20029;-69
2023/09/25 00:11:19;;;;;;;10.60;3.10;;;;;;;;;;5021431;28;20036;-69
2023/09/25 00:13:46;;;;;;;7.57;3.25;;;;;;;;;;5024225;28;20105;-68
2023/09/25 00:16:16;;;;;;;13.43;3.53;;;;;;;;;;5017521;28;20169;-68
2023/09/25 00:18:42;;;;;;;10.63;3.85;;;;;;;;;;5016877;28;20069;-69
2023/09/25 00:21:09;;;;;;;14.65;4.65;;;;;;;;;;5018601;28;20029;-68
2023/09/25 00:23:35;;;;;;;14.05;3.55;;;;;;;;;;5020471;28;20144;-69
2023/09/25 00:26:02;;;;;;;13.75;3.85;;;;;;;;;;5013836;28;20026;-68
2023/09/25 00:28:28;;;;;;;14.95;3.65;;;;;;;;;;5017957;28;20080;-68
2023/09/25 00:30:54;;;;;;;13.80;3.85;;;;;;;;;;5017641;28;20478;-69
2023/09/25 00:33:20;;;;;;;10.60;4.60;;;;;;;;;;5022920;28;20389;-69
2023/09/25 00:35:47;;;;;;;11.05;3.53;;;;;;;;;;5012667;28;20029;-69
2023/09/25 00:38:13;;;;;;;13.10;4.45;;;;;;;;;;5024424;28;20204;-68
2023/09/25 00:40:40;;;;;;;10.68;3.90;;;;;;;;;;5029172;28;20030;-69
2023/09/25 00:43:06;;;;;;;15.30;5.35;;;;;;;;;;5016936;28;20037;-69
2023/09/25 00:45:37;;;;;;;11.32;3.50;;;;;;;;;;5017816;28;20366;-69
2023/09/25 00:48:03;;;;;;;12.90;3.90;;;;;;;;;;5022545;28;20068;-69
2023/09/25 00:50:30;;;;;;;15.95;4.82;;;;;;;;;;5028278;28;20018;-69
2023/09/25 00:52:57;;;;;;;12.57;3.85;;;;;;;;;;5024309;28;20038;-69
2023/09/25 00:55:23;;;;;;;13.93;3.60;;;;;;;;;;5022139;28;20087;-69
2023/09/25 00:57:52;;;;;;;16.95;4.78;;;;;;;;;;5031608;28;20473;-69
2023/09/25 01:00:18;;;;;;;15.93;3.47;;;;;;;;;;5016444;28;20068;-69
2023/09/25 01:02:46;;;;;;;14.90;4.22;;;;;;;;;;5020411;28;20034;-71
2023/09/25 01:05:12;;;;;;;12.48;3.83;;;;;;;;;;5021686;28;20509;-69
2023/09/25 01:07:38;;;;;;;15.50;4.00;;;;;;;;;;5018888;28;20040;-69
2023/09/25 01:10:07;;;;;;;11.23;4.22;;;;;;;;;;5021374;28;20457;-70
2023/09/25 01:12:37;;;;;;;15.02;3.67;;;;;;;;;;5022372;28;20029;-70
2023/09/25 01:15:04;;;;;;;12.23;3.58;;;;;;;;;;5020667;28;20029;-70
2023/09/25 01:17:31;;;;;;;12.98;3.90;;;;;;;;;;5020725;28;20068;-69
2023/09/25 01:19:58;;;;;;;11.00;3.58;;;;;;;;;;5028467;28;20042;-69
2023/09/25 01:22:25;;;;;;;18.23;4.18;;;;;;;;;;5019019;28;20033;-69
2023/09/25 01:24:51;;;;;;;12.55;4.43;;;;;;;;;;5021529;28;20036;-69
2023/09/25 01:27:17;;;;;;;12.55;3.67;;;;;;;;;;5020788;28;20371;-68
2023/09/25 01:29:43;;;;;;;11.90;4.10;;;;;;;;;;5018120;28;20425;-69
2023/09/25 01:32:09;;;;;;;15.05;4.35;;;;;;;;;;5024171;28;20109;-70
2023/09/25 01:34:35;;;;;;;14.25;3.90;;;;;;;;;;5031755;28;20083;-69
2023/09/25 01:37:04;;;;;;;10.68;4.90;;;;;;;;;;5019893;28;20497;-73
2023/09/25 01:39:31;;;;;;;19.33;5.53;;;;;;;;;;5021544;28;20493;-69
2023/09/25 01:41:57;;;;;;;19.45;4.90;;;;;;;;;;5022569;28;20800;-70
2023/09/25 01:44:25;;;;;;;9.38;3.95;;;;;;;;;;5025415;28;20429;-69
2023/09/25 01:46:52;;;;;;;21.77;4.32;;;;;;;;;;5022781;28;20095;-69
2023/09/25 01:49:18;;;;;;;15.82;5.57;;;;;;;;;;5024224;28;20474;-74
2023/09/25 01:51:44;;;;;;;15.32;4.40;;;;;;;;;;5022054;28;20022;-69
2023/09/25 01:54:10;;;;;;;11.85;3.08;;;;;;;;;;5023511;28;20025;-70
2023/09/25 01:56:36;;;;;;;18.05;3.95;;;;;;;;;;5021209;28;20099;-69
2023/09/25 01:59:02;;;;;;;16.50;4.30;;;;;;;;;;5022126;28;20068;-69
2023/09/25 02:01:28;;;;;;;19.73;4.13;;;;;;;;;;5017731;28;20048;-69
2023/09/25 02:03:55;;;;;;;14.40;3.85;;;;;;;;;;5020634;28;20504;-70
2023/09/25 02:06:21;;;;;;;15.43;4.63;;;;;;;;;;5015915;28;20116;-69
2023/09/25 02:08:47;;;;;;;14.88;3.95;;;;;;;;;;5015714;28;20470;-70
2023/09/25 02:11:13;;;;;;;15.45;4.60;;;;;;;;;;5020132;28;20036;-70
2023/09/25 02:13:39;;;;;;;17.25;4.75;;;;;;;;;;5023305;28;20029;-69
2023/09/25 02:16:05;;;;;;;16.95;4.30;;;;;;;;;;5017465;28;20038;-68
2023/09/25 02:18:32;;;;;;;14.45;6.13;;;;;;;;;;5020443;28;20029;-70
2023/09/25 02:20:58;;;;;;;14.40;4.53;;;;;;;;;;5024478;28;20025;-68
2023/09/25 02:23:24;;;;;;;15.85;4.82;;;;;;;;;;5016595;28;20496;-69
2023/09/25 02:25:50;;;;;;;11.60;3.55;;;;;;;;;;5019289;28;20468;-68
2023/09/25 02:28:16;;;;;;;14.88;4.28;;;;;;;;;;5022498;28;20036;-69
2023/09/25 02:30:42;;;;;;;19.67;4.53;;;;;;;;;;5022075;28;20379;-69
2023/09/25 02:33:09;;;;;;;18.23;4.82;;;;;;;;;;5022726;28;20057;-70
2023/09/25 02:35:36;;;;;;;17.40;4.95;;;;;;;;;;5020225;28;20065;-69
2023/09/25 02:38:03;;;;;;;15.13;3.90;;;;;;;;;;5022404;28;20044;-69
2023/09/25 02:40:29;;;;;;;20.45;5.32;;;;;;;;;;5019369;28;20051;-69
2023/09/25 02:42:55;;;;;;;12.43;4.05;;;;;;;;;;5016722;28;20091;-70
2023/09/25 02:45:21;;;;;;;14.43;5.18;;;;;;;;;;5015774;28;20463;-69
2023/09/25 02:47:47;;;;;;;17.65;4.90;;;;;;;;;;5023475;28;20035;-69
2023/09/25 02:50:14;;;;;;;14.85;3.55;;;;;;;;;;5019156;28;20017;-69
2023/09/25 02:52:42;;;;;;;10.75;4.07;;;;;;;;;;5006182;28;20079;-69
2023/09/25 02:55:09;;;;;;;11.88;3.50;;;;;;;;;;5000956;28;20033;-69
2023/09/25 02:57:35;;;;;;;17.70;4.18;;;;;;;;;;5008514;28;20041;-69
2023/09/25 03:00:13;;;;;;;17.02;3.95;;;;;;;;;;5007052;28;20030;-69
2023/09/25 03:02:39;;;;;;;15.93;5.07;;;;;;;;;;5005824;28;20037;-69
2023/09/25 03:05:05;;;;;;;14.95;4.35;;;;;;;;;;5004096;28;20441;-68
2023/09/25 03:07:32;;;;;;;16.02;4.75;;;;;;;;;;5019301;28;20481;-69
2023/09/25 03:09:58;;;;;;;16.00;4.53;;;;;;;;;;5018290;28;20029;-69
2023/09/25 03:12:24;;;;;;;15.70;3.95;;;;;;;;;;5019343;28;20108;-70
2023/09/25 03:14:51;;;;;;;11.23;3.30;;;;;;;;;;5016813;28;20325;-69
2023/09/25 03:17:17;;;;;;;22.13;4.95;;;;;;;;;;5021548;28;20029;-69
2023/09/25 03:19:43;;;;;;;14.68;4.75;;;;;;;;;;5018601;28;20470;-69
2023/09/25 03:22:09;;;;;;;16.35;3.53;;;;;;;;;;5018384;28;20100;-69
2023/09/25 03:24:36;;;;;;;21.27;3.85;;;;;;;;;;5019857;28;20381;-69
2023/09/25 03:27:02;;;;;;;16.38;3.22;;;;;;;;;;5014631;28;20496;-69
2023/09/25 03:29:28;;;;;;;13.38;3.33;;;;;;;;;;5048457;28;20037;-69
2023/09/25 03:31:54;;;;;;;21.15;4.70;;;;;;;;;;5015852;28;20057;-69
2023/09/25 03:34:20;;;;;;;18.33;4.03;;;;;;;;;;5019395;28;20037;-69
2023/09/25 03:36:46;;;;;;;13.68;3.70;;;;;;;;;;5018134;28;20071;-69
2023/09/25 03:39:12;;;;;;;14.60;4.43;;;;;;;;;;5029301;28;20045;-69
2023/09/25 03:41:38;;;;;;;10.40;3.08;;;;;;;;;;5018033;28;20049;-69
2023/09/25 03:44:04;;;;;;;21.05;3.95;;;;;;;;;;5014484;28;20021;-70
2023/09/25 03:46:31;;;;;;;13.13;3.13;;;;;;;;;;5016447;28;20060;-70
2023/09/25 03:48:57;;;;;;;12.63;4.28;;;;;;;;;;5016008;28;20048;-70
2023/09/25 03:51:23;;;;;;;15.68;3.63;;;;;;;;;;5016439;28;20025;-70
2023/09/25 03:53:49;;;;;;;13.82;4.10;;;;;;;;;;5024007;28;20120;-69
2023/09/25 03:56:15;;;;;;;12.65;3.88;;;;;;;;;;5020250;28;20025;-70
2023/09/25 03:58:41;;;;;;;12.23;4.15;;;;;;;;;;5018785;28;20096;-70
2023/09/25 04:01:07;;;;;;;19.40;4.68;;;;;;;;;;5014244;28;20030;-69
2023/09/25 04:03:33;;;;;;;12.90;3.63;;;;;;;;;;5020414;28;20461;-69
2023/09/25 04:06:00;;;;;;;9.48;3.70;;;;;;;;;;5015417;28;20460;-70
2023/09/25 04:08:28;;;;;;;18.67;4.22;;;;;;;;;;5015484;28;20112;-71
2023/09/25 04:10:54;;;;;;;13.13;3.58;;;;;;;;;;5018124;28;20120;-71
2023/09/25 04:13:22;;;;;;;18.27;3.70;;;;;;;;;;5017003;28;20045;-70
2023/09/25 04:15:50;;;;;;;23.02;5.07;;;;;;;;;;5019147;28;20485;-69
2023/09/25 04:18:18;;;;;;;16.55;4.20;;;;;;;;;;5019418;28;20235;-71
2023/09/25 04:20:45;;;;;;;11.73;3.70;;;;;;;;;;5017869;28;20083;-71
2023/09/25 04:23:12;;;;;;;12.52;3.92;;;;;;;;;;5021774;28;20065;-70
2023/09/25 04:25:38;;;;;;;10.20;4.00;;;;;;;;;;5021913;28;20140;-70
2023/09/25 04:28:05;;;;;;;12.15;4.72;;;;;;;;;;5013821;28;20139;-70
2023/09/25 04:30:32;;;;;;;12.75;3.83;;;;;;;;;;5019432;28;20022;-73
2023/09/25 04:32:58;;;;;;;19.83;3.72;;;;;;;;;;5022068;28;20058;-70
2023/09/25 04:35:25;;;;;;;11.23;3.72;;;;;;;;;;5015784;28;20121;-70
2023/09/25 04:37:51;;;;;;;16.90;4.40;;;;;;;;;;5015047;28;20033;-69
2023/09/25 04:40:22;;;;;;;14.45;3.95;;;;;;;;;;5016189;28;20437;-70
2023/09/25 04:42:52;;;;;;;16.73;4.10;;;;;;;;;;5021389;28;20056;-70
2023/09/25 04:45:18;;;;;;;16.40;3.60;;;;;;;;;;5022077;28;20030;-70
2023/09/25 04:47:55;;;;;;;19.55;3.88;;;;;;;;;;5019129;28;20541;-70
2023/09/25 04:50:21;;;;;;;22.75;4.05;;;;;;;;;;5016575;28;20036;-70
2023/09/25 04:52:48;;;;;;;16.45;3.50;;;;;;;;;;5017192;28;20037;-70
2023/09/25 04:55:15;;;;;;;15.13;4.13;;;;;;;;;;5019657;28;20381;-70
2023/09/25 04:57:42;;;;;;;18.65;4.18;;;;;;;;;;5014052;28;20096;-70
2023/09/25 05:00:27;;;;;;;17.85;4.82;;;;;;;;;;5021428;28;20044;-70
2023/09/25 05:02:54;;;;;;;12.63;3.73;;;;;;;;;;5017869;28;20504;-69
2023/09/25 05:05:20;;;;;;;14.68;4.03;;;;;;;;;;5011162;28;20405;-70
2023/09/25 05:07:50;;;;;;;20.17;5.70;;;;;;;;;;5018236;28;20025;-70
2023/09/25 05:10:22;;;;;;;15.20;4.22;;;;;;;;;;5013872;28;20029;-70
2023/09/25 05:12:48;;;;;;;12.98;3.70;;;;;;;;;;5019450;28;20021;-70
2023/09/25 05:15:15;;;;;;;17.42;3.63;;;;;;;;;;5017189;28;20502;-70
2023/09/25 05:17:42;;;;;;;23.38;5.63;;;;;;;;;;5019112;28;20718;-70
2023/09/25 05:20:10;;;;;;;17.70;4.47;;;;;;;;;;5014559;28;20512;-71
2023/09/25 05:22:40;;;;;;;21.23;5.43;;;;;;;;;;5022669;28;20558;-70
2023/09/25 05:25:10;;;;;;;10.93;4.05;;;;;;;;;;5019941;28;20596;-72
2023/09/25 05:27:36;;;;;;;18.77;4.50;;;;;;;;;;5021227;28;20034;-70
2023/09/25 05:30:09;;;;;;;20.00;3.80;;;;;;;;;;5016658;28;20493;-70
2023/09/25 05:32:38;;;;;;;17.17;3.55;;;;;;;;;;5020926;28;20029;-70
2023/09/25 05:35:04;;;;;;;17.45;4.32;;;;;;;;;;5020953;28;20034;-70
2023/09/25 05:37:31;;;;;;;18.15;5.07;;;;;;;;;;5019075;28;20041;-70
2023/09/25 05:39:57;;;;;;;13.27;3.60;;;;;;;;;;5014962;28;20049;-70
2023/09/25 05:42:23;;;;;;;15.23;5.82;;;;;;;;;;5033492;28;20103;-69
2023/09/25 05:44:50;;;;;;;9.35;3.38;;;;;;;;;;5019065;28;20029;-69
2023/09/25 05:47:16;;;;;;;14.63;4.18;;;;;;;;;;5021983;28;20818;-70
2023/09/25 05:49:42;;;;;;;17.52;4.18;;;;;;;;;;5019887;28;20097;-69
2023/09/25 05:52:09;;;;;;;14.52;4.15;;;;;;;;;;5032527;28;20498;-70
2023/09/25 05:54:35;;;;;;;16.05;4.70;;;;;;;;;;5042375;28;20493;-70
2023/09/25 05:57:01;;;;;;;16.50;5.68;;;;;;;;;;5026957;28;20080;-70
2023/09/25 05:59:28;;;;;;;14.85;5.18;;;;;;;;;;5018517;28;20040;-69
2023/09/25 06:01:54;;;;;;;15.75;3.92;;;;;;;;;;5023578;28;20049;-69
2023/09/25 06:04:20;;;;;;;15.35;4.60;;;;;;;;;;5024754;28;20513;-69
2023/09/25 06:06:46;;;;;;;11.80;3.70;;;;;;;;;;5019377;28;20036;-69
2023/09/25 06:09:15;;;;;;;25.50;5.70;;;;;;;;;;5024860;28;20026;-69
2023/09/25 06:11:42;;;;;;;18.63;4.18;;;;;;;;;;5020560;28;20446;-69
2023/09/25 06:14:11;;;;;;;19.42;6.05;;;;;;;;;;5023432;28;20109;-69
2023/09/25 06:16:39;;;;;;;14.77;4.38;;;;;;;;;;5025650;28;20389;-69
2023/09/25 06:19:05;;;;;;;10.93;4.45;;;;;;;;;;5020043;28;20180;-69
2023/09/25 06:21:32;;;;;;;14.07;4.65;;;;;;;;;;5022790;28;20057;-69
2023/09/25 06:23:58;;;;;;;13.77;3.55;;;;;;;;;;5023543;28;20486;-69
2023/09/25 06:26:27;;;;;;;14.93;4.78;;;;;;;;;;5019727;28;20038;-70
2023/09/25 06:28:54;;;;;;;17.52;5.00;;;;;;;;;;5019870;28;20022;-69
2023/09/25 06:31:22;;;;;;;25.50;4.78;;;;;;;;;;5021929;28;20390;-69
2023/09/25 06:33:48;;;;;;;12.32;3.75;;;;;;;;;;5023176;28;20111;-70
2023/09/25 06:36:14;;;;;;;14.02;3.80;;;;;;;;;;5024958;28;20025;-69
2023/09/25 06:38:40;;;;;;;24.38;5.95;;;;;;;;;;5025415;28;20494;-72
2023/09/25 06:41:06;;;;;;;16.10;5.82;;;;;;;;;;5027832;28;20513;-71
2023/09/25 06:43:32;;;;;;;16.92;4.10;;;;;;;;;;5040637;28;20079;-70
2023/09/25 06:45:58;;;;;;;19.08;4.68;;;;;;;;;;5025272;28;20529;-70
2023/09/25 06:48:26;;;;;;;12.27;4.38;;;;;;;;;;5025492;28;20131;-70
2023/09/25 06:50:52;;;;;;;10.63;3.70;;;;;;;;;;5019646;28;20473;-70
2023/09/25 06:53:18;;;;;;;14.32;4.40;;;;;;;;;;5021478;28;20071;-69
2023/09/25 06:55:44;;;;;;;14.20;4.93;;;;;;;;;;5025913;28;20677;-69
2023/09/25 06:58:11;;;;;;;13.95;4.32;;;;;;;;;;5018051;28;20044;-70
2023/09/25 07:00:37;;;;;;;14.15;4.68;;;;;;;;;;5026028;28;20021;-70
2023/09/25 07:03:03;;;;;;;15.02;4.00;;;;;;;;;;5016363;28;20629;-70
2023/09/25 07:05:29;;;;;;;13.15;4.47;;;;;;;;;;5023399;28;20045;-70
2023/09/25 07:07:56;;;;;;;10.73;3.85;;;;;;;;;;5024160;28;20045;-68
2023/09/25 07:10:22;;;;;;;21.35;4.93;;;;;;;;;;5020480;28;20531;-70
2023/09/25 07:12:49;;;;;;;16.10;3.30;;;;;;;;;;5027641;28;20497;-70
2023/09/25 07:15:15;;;;;;;13.65;3.80;;;;;;;;;;5020883;28;20045;-70
2023/09/25 07:17:41;;;;;;;24.52;6.07;;;;;;;;;;5021039;28;20315;-69
2023/09/25 07:20:07;;;;;;;19.52;5.18;;;;;;;;;;5023384;28;20124;-70
2023/09/25 07:22:33;;;;;;;10.25;4.03;;;;;;;;;;5020629;28;20030;-70
2023/09/25 07:25:00;;;;;;;16.25;4.70;;;;;;;;;;5025046;28;20553;-70
2023/09/25 07:27:28;;;;;;;15.05;4.00;;;;;;;;;;5020845;28;20374;-69
2023/09/25 07:29:54;;;;;;;12.18;3.90;;;;;;;;;;5022876;28;20113;-69
2023/09/25 07:32:20;;;;;;;20.88;4.00;;;;;;;;;;5025672;28;20033;-70
2023/09/25 07:34:46;;;;;;;18.50;4.70;;;;;;;;;;5025075;28;20097;-70
2023/09/25 07:37:13;;;;;;;16.02;4.57;;;;;;;;;;5023331;28;20527;-70
2023/09/25 07:39:40;;;;;;;10.93;4.13;;;;;;;;;;5021641;28;20045;-70
2023/09/25 07:42:07;;;;;;;12.60;3.42;;;;;;;;;;5023564;28;20053;-70
2023/09/25 07:44:36;;;;;;;14.45;3.92;;;;;;;;;;5023200;28;20029;-69
2023/09/25 07:47:06;;;;;;;11.30;4.05;;;;;;;;;;5015350;28;20042;-70
2023/09/25 07:49:40;;;;;;;12.43;4.18;;;;;;;;;;5021972;28;20119;-70
2023/09/25 07:52:15;;;;;;;18.33;3.92;;;;;;;;;;5020880;28;20042;-70
2023/09/25 07:54:41;;;;;;;13.52;4.35;;;;;;;;;;5020720;28;20060;-72
2023/09/25 07:57:08;;;;;;;11.45;3.83;;;;;;;;;;5023007;28;20509;-70
2023/09/25 07:59:34;;;;;;;11.77;4.35;;;;;;;;;;5021782;28;20029;-70
2023/09/25 08:02:01;;;;;;;9.63;3.13;;;;;;;;;;5022614;28;20030;-71
2023/09/25 08:04:27;;;;;;;14.60;3.08;;;;;;;;;;5022447;28;20041;-69
2023/09/25 08:06:53;;;;;;;10.80;3.30;;;;;;;;;;5014652;28;20060;-70
2023/09/25 08:09:20;;;;;;;11.95;3.80;;;;;;;;;;5023411;28;20060;-69
2023/09/25 08:11:46;;;;;;;11.18;3.15;;;;;;;;;;5018737;28;20029;-69
2023/09/25 08:14:12;;;;;;;13.32;3.45;;;;;;;;;;5014782;28;20445;-69
2023/09/25 08:16:39;;;;;;;14.02;4.32;;;;;;;;;;5016410;28;20036;-70
2023/09/25 08:19:05;;;;;;;11.07;3.60;;;;;;;;;;5022726;28;20036;-70
2023/09/25 08:21:31;;;;;;;16.17;3.05;;;;;;;;;;5023748;28;20081;-70
2023/09/25 08:23:57;;;;;;;17.40;4.00;;;;;;;;;;5017607;28;20029;-70
2023/09/25 08:26:23;;;;;;;13.23;4.05;;;;;;;;;;5026932;28;20040;-70
2023/09/25 08:28:50;;;;;;;12.00;3.78;;;;;;;;;;5024732;28;20025;-70
2023/09/25 08:31:16;;;;;;;7.78;3.15;;;;;;;;;;5020670;28;20060;-70
2023/09/25 08:33:43;;;;;;;6.85;3.60;;;;;;;;;;5025167;28;20432;-70
2023/09/25 08:36:13;;;;;;;11.13;2.75;;;;;;;;;;5022633;28;20029;-70
2023/09/25 08:38:39;;;;;;;13.90;3.92;;;;;;;;;;5023930;28;20084;-70
2023/09/25 08:41:05;;;;;;;21.45;4.13;;;;;;;;;;5023934;28;20057;-70
2023/09/25 08:43:31;;;;;;;10.57;3.25;;;;;;;;;;5019483;28;20029;-71
2023/09/25 08:45:58;;;;;;;12.57;3.85;;;;;;;;;;5023671;28;20048;-70
2023/09/25 08:48:24;;;;;;;15.75;3.85;;;;;;;;;;5017432;28;20424;-71
2023/09/25 08:50:50;;;;;;;12.20;3.45;;;;;;;;;;5021476;28;20112;-71
2023/09/25 08:53:17;;;;;;;12.70;3.58;;;;;;;;;;5030000;28;20441;-72
2023/09/25 08:55:43;;;;;;;17.98;4.13;;;;;;;;;;5025341;28;20378;-71
2023/09/25 08:58:10;;;;;;;7.50;4.25;;;;;;;;;;5020672;28;20026;-72
2023/09/25 09:00:36;;;;;;;14.40;3.50;;;;;;;;;;5024228;28;20383;-71
2023/09/25 09:03:02;;;;;;;17.13;4.43;;;;;;;;;;5026228;28;20273;-70
2023/09/25 09:05:28;;;;;;;12.20;3.72;;;;;;;;;;5027556;28;20040;-70
2023/09/25 09:07:57;;;;;;;17.40;3.92;;;;;;;;;;5020227;28;20029;-71
2023/09/25 09:10:23;;;;;;;14.07;3.03;;;;;;;;;;5023711;28;20025;-71
2023/09/25 09:12:53;;;;;;;16.60;5.68;;;;;;;;;;5018721;28;20108;-70
2023/09/25 09:15:29;;;;;;;12.02;4.10;;;;;;;;;;5028642;28;20036;-70
2023/09/25 09:17:56;;;;;;;13.60;3.25;;;;;;;;;;5030448;28;20037;-71
2023/09/25 09:20:42;;;;;;;12.05;3.78;;;;;;;;;;5026071;28;20041;-71
2023/09/25 09:23:09;;;;;;;13.32;4.22;;;;;;;;;;5021827;28;20103;-71
2023/09/25 09:25:35;;;;;;;12.27;4.93;;;;;;;;;;5030702;28;20033;-70
2023/09/25 09:28:03;;;;;;;13.40;4.97;;;;;;;;;;5020209;28;20119;-70
2023/09/25 09:30:30;;;;;;;13.20;3.78;;;;;;;;;;5022518;28;20021;-71
2023/09/25 09:32:57;;;;;;;14.00;3.88;;;;;;;;;;5025484;28;20029;-70
2023/09/25 09:35:25;;;;;;;14.05;3.83;;;;;;;;;;5024643;28;20131;-71
2023/09/25 09:37:55;;;;;;;13.80;4.18;;;;;;;;;;5023721;28;20042;-70
2023/09/25 09:40:22;;;;;;;9.07;3.38;;;;;;;;;;5026485;28;20569;-70
2023/09/25 09:42:51;;;;;;;10.20;3.03;;;;;;;;;;5026904;28;20047;-71
2023/09/25 09:45:28;;;;;;;16.98;4.25;;;;;;;;;;5023770;28;20451;-71
2023/09/25 09:47:56;;;;;;;17.33;3.65;;;;;;;;;;5025424;28;20107;-69
2023/09/25 09:50:27;;;;;;;11.38;3.17;;;;;;;;;;5027467;28;20416;-69
2023/09/25 09:52:53;;;;;;;11.50;3.20;;;;;;;;;;5028223;28;20481;-68
2023/09/25 09:55:20;;;;;;;13.93;4.00;;;;;;;;;;5020754;28;20032;-69
2023/09/25 09:57:47;;;;;;;11.23;3.58;;;;;;;;;;5027020;28;20432;-72
2023/09/25 10:00:14;;;;;;;8.65;3.75;;;;;;;;;;5027302;28;20025;-69
2023/09/25 10:02:40;;;;;;;13.73;3.47;;;;;;;;;;5018757;28;20057;-69
2023/09/25 10:05:09;;;;;;;11.48;4.35;;;;;;;;;;5021874;28;20033;-68
2023/09/25 10:07:56;;;;;;;12.80;3.85;;;;;;;;;;5016384;28;20564;-70
2023/09/25 10:10:24;;;;;;;12.27;3.58;;;;;;;;;;5014300;28;20067;-69
2023/09/25 10:12:50;;;;;;;12.75;4.22;;;;;;;;;;5022290;28;20036;-68
2023/09/25 10:15:23;;;;;;;12.52;3.50;;;;;;;;;;5022097;28;20473;-69
2023/09/25 10:17:49;;;;;;;15.05;4.10;;;;;;;;;;5025261;28;20091;-68
2023/09/25 10:20:34;;;;;;;11.77;3.78;;;;;;;;;;5022095;28;20029;-70
2023/09/25 10:23:06;;;;;;;9.18;3.47;;;;;;;;;;5013821;28;20033;-69
2023/09/25 10:25:50;;;;;;;12.23;4.18;;;;;;;;;;5016246;28;20079;-69
2023/09/25 10:28:36;;;;;;;17.83;4.05;;;;;;;;;;5022146;28;20109;-69
2023/09/25 10:31:03;;;;;;;12.57;3.50;;;;;;;;;;5011052;28;20484;-69
2023/09/25 10:33:33;;;;;;;15.00;4.32;;;;;;;;;;5021775;28;20053;-69
2023/09/25 10:36:04;;;;;;;16.88;3.58;;;;;;;;;;5026385;28;20068;-69
2023/09/25 10:38:33;;;;;;;12.07;3.35;;;;;;;;;;5020683;28;20041;-69
2023/09/25 10:41:06;;;;;;;11.57;3.38;;;;;;;;;;5036624;28;20052;-69
2023/09/25 10:43:33;;;;;;;11.05;3.95;;;;;;;;;;5016380;28;20238;-68
2023/09/25 10:45:59;;;;;;;13.82;3.95;;;;;;;;;;5023950;28;20033;-69
2023/09/25 10:48:26;;;;;;;15.13;3.90;;;;;;;;;;5022486;28;20505;-69
2023/09/25 10:50:52;;;;;;;12.43;3.88;;;;;;;;;;5018824;28;20028;-69
2023/09/25 10:53:19;;;;;;;14.77;4.57;;;;;;;;;;5016932;28;20026;-70
2023/09/25 10:55:47;;;;;;;12.52;4.05;;;;;;;;;;5024383;28;20025;-70
2023/09/25 10:58:14;;;;;;;10.90;3.28;;;;;;;;;;5013348;28;20060;-71
2023/09/25 11:00:41;;;;;;;17.00;3.45;;;;;;;;;;5019802;28;20479;-70
2023/09/25 11:03:07;;;;;;;13.35;4.32;;;;;;;;;;5022861;28;20374;-70
2023/09/25 11:05:35;;;;;;;11.85;3.65;;;;;;;;;;5015993;28;20037;-70
2023/09/25 11:08:01;;;;;;;12.93;4.55;;;;;;;;;;5017113;28;20486;-70
2023/09/25 11:10:29;;;;;;;9.90;3.03;;;;;;;;;;5022880;28;20497;-70
2023/09/25 11:12:56;;;;;;;12.55;4.15;;;;;;;;;;5022518;28;20017;-71
2023/09/25 11:15:22;;;;;;;11.52;3.58;;;;;;;;;;5017840;28;20033;-70
2023/09/25 11:17:49;;;;;;;10.50;4.82;;;;;;;;;;5025425;28;20393;-71
2023/09/25 11:20:18;;;;;;;14.45;4.15;;;;;;;;;;5027437;28;20401;-70
2023/09/25 11:22:46;;;;;;;10.55;3.85;;;;;;;;;;5025656;28;20333;-70
2023/09/25 11:25:15;;;;;;;12.35;3.88;;;;;;;;;;5022069;28;20037;-70
2023/09/25 11:27:51;;;;;;;10.30;3.40;;;;;;;;;;5025125;28;20757;-70
2023/09/25 11:30:17;;;;;;;11.18;3.88;;;;;;;;;;5021829;28;20025;-71
2023/09/25 11:32:43;;;;;;;13.07;3.63;;;;;;;;;;5018902;28;20618;-70
2023/09/25 11:35:13;;;;;;;13.23;4.20;;;;;;;;;;5026275;28;20044;-70
2023/09/25 11:37:59;;;;;;;17.38;4.35;;;;;;;;;;5013063;28;20022;-71
2023/09/25 11:40:26;;;;;;;7.57;3.92;;;;;;;;;;5010718;28;20061;-69
2023/09/25 11:43:13;;;;;;;10.80;3.90;;;;;;;;;;5006928;28;20049;-73
2023/09/25 11:46:00;;;;;;;12.52;4.53;;;;;;;;;;5034997;28;20041;-67
2023/09/25 11:48:26;;;;;;;12.73;3.80;;;;;;;;;;5034393;28;20037;-68
2023/09/25 11:51:12;;;;;;;13.77;3.78;;;;;;;;;;5021462;28;20572;-69
2023/09/25 11:53:58;;;;;;;16.63;3.28;;;;;;;;;;5030461;28;20467;-68
2023/09/25 11:56:24;;;;;;;15.02;5.55;;;;;;;;;;5032773;28;20025;-69
2023/09/25 11:58:50;;;;;;;9.90;3.80;;;;;;;;;;5032167;28;20025;-69
2023/09/25 12:01:16;;;;;;;17.52;4.85;;;;;;;;;;5028388;28;20180;-69
2023/09/25 12:03:43;;;;;;;13.50;3.25;;;;;;;;;;5033422;28;20038;-70
2023/09/25 12:06:09;;;;;;;10.80;3.25;;;;;;;;;;5028902;28;20786;-71
2023/09/25 12:08:35;;;;;;;12.02;3.35;;;;;;;;;;5032231;28;20044;-72
2023/09/25 12:11:01;;;;;;;14.63;4.63;;;;;;;;;;5027957;28;20124;-71
2023/09/25 12:13:27;;;;;;;13.57;4.15;;;;;;;;;;5032113;28;20382;-70
2023/09/25 12:15:53;;;;;;;9.18;3.25;;;;;;;;;;5029079;28;20250;-68
2023/09/25 12:18:19;;;;;;;12.88;3.58;;;;;;;;;;5014933;28;20033;-71
2023/09/25 12:20:46;;;;;;;15.75;3.85;;;;;;;;;;5013985;28;20029;-72
2023/09/25 12:23:12;;;;;;;10.48;4.32;;;;;;;;;;5016228;28;20378;-70
2023/09/25 12:25:38;;;;;;;11.88;3.55;;;;;;;;;;5016258;28;20025;-71
2023/09/25 12:28:04;;;;;;;10.75;4.95;;;;;;;;;;5011391;28;20443;-70
2023/09/25 12:30:30;;;;;;;11.80;3.13;;;;;;;;;;5016466;28;20477;-70
2023/09/25 12:32:56;;;;;;;9.45;3.50;;;;;;;;;;5016531;28;20035;-71
2023/09/25 12:35:23;;;;;;;11.57;3.50;;;;;;;;;;5023614;28;20033;-71
2023/09/25 12:37:51;;;;;;;10.02;3.47;;;;;;;;;;5014871;28;20112;-71
2023/09/25 12:40:18;;;;;;;11.93;3.47;;;;;;;;;;5019942;28;20128;-73
2023/09/25 12:42:44;;;;;;;11.00;3.92;;;;;;;;;;5017958;28;20059;-74
2023/09/25 12:45:11;;;;;;;8.65;3.30;;;;;;;;;;5035353;28;20516;-73
2023/09/25 12:47:37;;;;;;;9.38;3.47;;;;;;;;;;5017636;28;20040;-73
2023/09/25 12:50:04;;;;;;;6.25;3.20;;;;;;;;;;5018781;28;20520;-73
2023/09/25 12:52:31;;;;;;;11.70;3.50;;;;;;;;;;5019755;28;20043;-72
2023/09/25 12:54:58;;;;;;;10.57;3.65;;;;;;;;;;5018626;28;20100;-74
2023/09/25 12:57:25;;;;;;;9.50;3.38;;;;;;;;;;5020840;28;20356;-72
2023/09/25 12:59:52;;;;;;;12.32;4.10;;;;;;;;;;5018308;28;20067;-73
2023/09/25 13:02:18;;;;;;;14.10;4.43;;;;;;;;;;5017592;28;20513;-73
2023/09/25 13:04:44;;;;;;;7.60;3.30;;;;;;;;;;5020046;28;20931;-72
2023/09/25 13:07:11;;;;;;;9.57;3.47;;;;;;;;;;5013740;28;20033;-73
2023/09/25 13:09:37;;;;;;;16.98;3.75;;;;;;;;;;5014399;28;20032;-72
2023/09/25 13:12:03;;;;;;;12.40;4.25;;;;;;;;;;5018730;28;20640;-72
2023/09/25 13:14:29;;;;;;;8.27;3.20;;;;;;;;;;5019890;28;20029;-73
2023/09/25 13:16:55;;;;;;;11.35;3.40;;;;;;;;;;5015403;28;20040;-73
2023/09/25 13:19:22;;;;;;;11.35;3.85;;;;;;;;;;5016737;28;20378;-73
2023/09/25 13:21:49;;;;;;;10.77;3.63;;;;;;;;;;5020277;28;20038;-73
2023/09/25 13:24:15;;;;;;;9.15;3.63;;;;;;;;;;5015289;28;20025;-72
2023/09/25 13:26:41;;;;;;;10.73;3.90;;;;;;;;;;5018598;28;20119;-73
2023/09/25 13:29:07;;;;;;;10.13;3.50;;;;;;;;;;5017357;28;20048;-73
2023/09/25 13:31:33;;;;;;;7.00;3.17;;;;;;;;;;5018810;28;20057;-72
2023/09/25 13:34:00;;;;;;;8.60;3.60;;;;;;;;;;5018468;28;20060;-72
2023/09/25 13:36:26;;;;;;;11.00;4.30;;;;;;;;;;5020353;28;20104;-73
2023/09/25 13:38:56;;;;;;;11.65;3.53;;;;;;;;;;5016237;28;20152;-71
2023/09/25 13:41:22;;;;;;;10.25;3.60;;;;;;;;;;5016681;28;20036;-72
2023/09/25 13:43:48;;;;;;;12.25;4.13;;;;;;;;;;5017160;28;20048;-73
2023/09/25 13:46:14;;;;;;;10.75;3.85;;;;;;;;;;5019336;28;20029;-73
2023/09/25 13:48:40;;;;;;;9.20;3.22;;;;;;;;;;5013192;28;20045;-71
2023/09/25 13:51:07;;;;;;;10.35;3.33;;;;;;;;;;5015975;28;20497;-71
2023/09/25 13:53:34;;;;;;;10.07;3.67;;;;;;;;;;5016245;28;20779;-73
2023/09/25 13:56:01;;;;;;;12.93;4.25;;;;;;;;;;5019299;28;20524;-71
2023/09/25 13:58:27;;;;;;;11.20;3.55;;;;;;;;;;5017781;28;20620;-71
2023/09/25 14:00:54;;;;;;;12.45;2.90;;;;;;;;;;5015466;28;20663;-71
2023/09/25 14:03:21;;;;;;;15.70;4.60;;;;;;;;;;5018661;28;20569;-70
2023/09/25 14:05:47;;;;;;;12.88;3.70;;;;;;;;;;5018573;28;20017;-71
2023/09/25 14:08:13;;;;;;;9.00;2.92;;;;;;;;;;5014906;28;20194;-71
2023/09/25 14:10:40;;;;;;;13.15;3.42;;;;;;;;;;5017171;28;20021;-72
2023/09/25 14:13:07;;;;;;;13.48;3.65;;;;;;;;;;5014647;28;21050;-71
2023/09/25 14:15:34;;;;;;;7.88;3.22;;;;;;;;;;5016311;28;20117;-71
2023/09/25 14:18:00;;;;;;;7.95;3.40;;;;;;;;;;5016504;28;20037;-72
2023/09/25 14:20:26;;;;;;;10.10;3.10;;;;;;;;;;5020205;28;20055;-73
2023/09/25 14:22:52;;;;;;;8.75;2.97;;;;;;;;;;5018504;28;20029;-72
2023/09/25 14:25:18;;;;;;;11.75;3.38;;;;;;;;;;5017958;28;20052;-73
2023/09/25 14:27:44;;;;;;;10.35;3.90;;;;;;;;;;5017008;28;20501;-72
2023/09/25 14:30:12;;;;;;;12.00;3.17;;;;;;;;;;5016859;28;20033;-73
2023/09/25 14:32:38;;;;;;;9.60;3.15;;;;;;;;;;5017422;28;20076;-72